createdAt,value
2023-03-26T00:01:30.171Z,6.97
2023-03-26T00:03:57.993Z,6.57
2023-03-26T00:06:28.785Z,6.68
2023-03-26T00:08:57.715Z,4.45
2023-03-26T00:11:27.356Z,6.40
2023-03-26T00:13:57.023Z,3.20
2023-03-26T00:16:26.430Z,5.05
2023-03-26T00:18:53.888Z,8.10
2023-03-26T00:21:28.213Z,7.63
2023-03-26T00:23:58.601Z,6.30
2023-03-26T00:26:26.684Z,9.02
2023-03-26T00:28:54.596Z,4.85
2023-03-26T00:31:21.588Z,8.20
2023-03-26T00:33:51.335Z,8.52
2023-03-26T00:36:20.015Z,5.75
2023-03-26T00:38:47.958Z,8.95
2023-03-26T00:41:25.055Z,5.95
2023-03-26T00:43:56.192Z,6.28
2023-03-26T00:46:25.247Z,5.15
2023-03-26T00:48:52.192Z,7.85
2023-03-26T00:51:20.985Z,6.53
2023-03-26T00:53:49.346Z,8.70
2023-03-26T00:56:16.830Z,7.07
2023-03-26T00:58:44.443Z,5.22
2023-03-26T01:01:14.027Z,6.80
2023-03-26T01:03:53.191Z,7.65
2023-03-26T01:06:34.024Z,6.35
2023-03-26T01:09:12.687Z,11.15
2023-03-26T01:11:39.898Z,9.25
2023-03-26T01:14:10.924Z,8.52
2023-03-26T01:16:45.120Z,7.10
2023-03-26T01:19:23.876Z,10.63
2023-03-26T01:21:50.628Z,12.13
2023-03-26T01:24:17.588Z,13.75
2023-03-26T01:26:50.277Z,13.43
2023-03-26T01:29:29.710Z,13.82
2023-03-26T01:32:20.752Z,12.48
2023-03-26T01:35:07.029Z,11.30
2023-03-26T01:37:58.779Z,10.45
2023-03-26T01:40:43.932Z,12.15
2023-03-26T01:43:29.038Z,10.45
2023-03-26T01:45:59.409Z,12.60
2023-03-26T01:48:36.882Z,9.88
2023-03-26T01:51:05.032Z,12.00
2023-03-26T01:53:34.967Z,12.23
2023-03-26T01:56:12.938Z,8.20
2023-03-26T01:59:01.402Z,7.88
2023-03-26T02:01:44.762Z,9.23
2023-03-26T02:04:53.429Z,5.30
2023-03-26T02:07:39.322Z,9.38
2023-03-26T02:10:16.209Z,10.98
2023-03-26T02:12:44.462Z,10.45
2023-03-26T02:15:12.561Z,7.38
2023-03-26T02:17:40.391Z,7.88
2023-03-26T02:20:15.911Z,10.18
2023-03-26T02:22:46.012Z,8.00
2023-03-26T02:25:18.882Z,7.82
2023-03-26T02:27:46.864Z,9.50
2023-03-26T02:30:20.109Z,12.02
2023-03-26T02:32:47.709Z,11.05
2023-03-26T02:35:14.734Z,13.75
2023-03-26T02:37:42.200Z,12.18
2023-03-26T02:40:11.660Z,12.38
2023-03-26T02:42:39.034Z,11.63
2023-03-26T02:45:06.763Z,14.25
2023-03-26T02:47:33.856Z,10.07
2023-03-26T02:50:01.677Z,10.30
2023-03-26T02:52:28.418Z,12.75
2023-03-26T02:54:55.402Z,9.43
2023-03-26T02:57:23.366Z,8.90
2023-03-26T02:59:50.398Z,10.13
2023-03-26T03:02:18.290Z,10.32
2023-03-26T03:04:45.285Z,6.38
2023-03-26T03:07:15.124Z,10.13
2023-03-26T03:09:42.072Z,11.07
2023-03-26T03:12:08.824Z,10.98
2023-03-26T03:14:35.750Z,12.05
2023-03-26T03:17:02.587Z,11.77
2023-03-26T03:19:29.394Z,14.52
2023-03-26T03:21:56.257Z,9.60
2023-03-26T03:24:23.519Z,11.32
2023-03-26T03:26:54.956Z,8.20
2023-03-26T03:29:21.745Z,11.05
2023-03-26T03:31:48.505Z,11.10
2023-03-26T03:34:15.380Z,8.65
2023-03-26T03:36:42.044Z,11.68
2023-03-26T03:39:08.925Z,9.90
2023-03-26T03:41:35.686Z,6.88
2023-03-26T03:44:02.607Z,11.90
2023-03-26T03:46:29.412Z,6.25
2023-03-26T03:48:56.218Z,6.63
2023-03-26T03:51:23.368Z,8.07
2023-03-26T03:53:50.516Z,7.47
2023-03-26T03:56:19.375Z,7.35
2023-03-26T03:58:47.412Z,7.68
2023-03-26T04:01:16.833Z,7.28
2023-03-26T04:03:46.539Z,6.88
2023-03-26T04:06:13.907Z,6.93
2023-03-26T04:08:40.861Z,8.38
2023-03-26T04:11:07.545Z,4.05
2023-03-26T04:13:34.432Z,4.20
2023-03-26T04:16:01.278Z,7.82
2023-03-26T04:18:30.243Z,3.38
2023-03-26T04:20:57.162Z,5.10
2023-03-26T04:23:24.391Z,4.90
2023-03-26T04:25:55.025Z,6.32
2023-03-26T04:28:35.659Z,4.82
2023-03-26T04:31:06.247Z,7.70
2023-03-26T04:33:34.787Z,6.43
2023-03-26T04:36:03.203Z,7.50
2023-03-26T04:38:33.511Z,3.75
2023-03-26T04:41:03.993Z,5.28
2023-03-26T04:43:31.625Z,7.03
2023-03-26T04:45:58.424Z,7.70
2023-03-26T04:48:25.773Z,6.18
2023-03-26T04:50:52.862Z,5.93
2023-03-26T04:53:21.367Z,4.35
2023-03-26T04:55:57.359Z,5.40
2023-03-26T04:58:30.202Z,6.53
2023-03-26T05:00:57.505Z,2.88
2023-03-26T05:03:25.660Z,4.50
2023-03-26T05:05:52.959Z,2.63
2023-03-26T05:08:19.784Z,2.70
2023-03-26T05:10:46.601Z,5.57
2023-03-26T05:13:13.351Z,4.93
2023-03-26T05:15:40.413Z,4.50
2023-03-26T05:18:08.858Z,1.35
2023-03-26T05:20:36.000Z,1.63
2023-03-26T05:23:02.889Z,4.22
2023-03-26T05:25:30.207Z,1.80
2023-03-26T05:27:57.022Z,5.65
2023-03-26T05:30:23.801Z,1.83
2023-03-26T05:32:51.921Z,2.20
2023-03-26T05:35:19.517Z,2.47
2023-03-26T05:37:47.998Z,3.65
2023-03-26T05:40:17.018Z,5.13
2023-03-26T05:42:44.812Z,2.47
2023-03-26T05:45:12.818Z,3.67
2023-03-26T05:47:39.750Z,1.88
2023-03-26T05:50:07.530Z,5.55
2023-03-26T05:52:34.665Z,4.40
2023-03-26T05:55:01.867Z,2.50
2023-03-26T05:57:32.359Z,4.15
2023-03-26T05:59:59.156Z,3.42
2023-03-26T06:02:26.078Z,8.05
2023-03-26T06:04:52.937Z,4.82
2023-03-26T06:07:20.083Z,3.97
2023-03-26T06:09:47.135Z,5.70
2023-03-26T06:12:14.820Z,4.50
2023-03-26T06:14:44.996Z,6.28
2023-03-26T06:17:12.062Z,4.78
2023-03-26T06:19:38.873Z,6.55
2023-03-26T06:22:05.953Z,5.00
2023-03-26T06:24:34.420Z,4.00
2023-03-26T06:27:01.132Z,6.97
2023-03-26T06:29:27.967Z,4.65
2023-03-26T06:31:54.985Z,4.15
2023-03-26T06:34:22.125Z,5.50
2023-03-26T06:36:49.141Z,6.35
2023-03-26T06:39:16.394Z,8.00
2023-03-26T06:41:43.107Z,6.95
2023-03-26T06:44:11.176Z,9.93
2023-03-26T06:46:39.048Z,5.05
2023-03-26T06:49:06.057Z,7.05
2023-03-26T06:51:32.873Z,6.65
2023-03-26T06:53:59.694Z,5.32
2023-03-26T06:56:26.604Z,10.05
2023-03-26T06:58:53.237Z,10.63
2023-03-26T07:01:20.096Z,11.05
2023-03-26T07:03:47.014Z,9.52
2023-03-26T07:06:13.832Z,7.05
2023-03-26T07:08:40.891Z,8.90
2023-03-26T07:11:07.788Z,12.30
2023-03-26T07:13:34.721Z,9.85
2023-03-26T07:16:01.561Z,11.98
2023-03-26T07:18:28.325Z,14.68
2023-03-26T07:20:55.495Z,13.45
2023-03-26T07:23:22.738Z,15.07
2023-03-26T07:25:49.941Z,13.88
2023-03-26T07:28:34.744Z,10.40
2023-03-26T07:31:18.399Z,11.57
2023-03-26T07:34:23.775Z,13.00
2023-03-26T07:37:33.980Z,11.18
2023-03-26T07:40:50.645Z,10.95
2023-03-26T07:43:28.248Z,16.20
2023-03-26T07:45:56.349Z,9.80
2023-03-26T07:48:31.506Z,6.95
2023-03-26T07:51:00.050Z,9.52
2023-03-26T07:53:26.903Z,14.55
2023-03-26T07:55:59.668Z,12.57
2023-03-26T07:58:48.173Z,11.32
2023-03-26T08:01:23.890Z,8.77
2023-03-26T08:04:23.747Z,7.90
2023-03-26T08:07:03.385Z,10.48
2023-03-26T08:10:08.286Z,13.88
2023-03-26T08:12:41.185Z,18.42
2023-03-26T08:15:33.968Z,12.63
2023-03-26T08:18:38.834Z,10.55
2023-03-26T08:21:31.765Z,13.02
2023-03-26T08:24:01.393Z,13.82
2023-03-26T08:26:51.739Z,10.07
2023-03-26T08:29:22.806Z,13.30
2023-03-26T08:31:50.462Z,17.40
2023-03-26T08:34:17.291Z,9.75
2023-03-26T08:36:43.992Z,12.98
2023-03-26T08:39:10.796Z,13.32
2023-03-26T08:42:25.774Z,16.20
2023-03-26T08:45:29.552Z,11.65
2023-03-26T08:48:14.818Z,9.95
2023-03-26T08:50:58.244Z,11.73
2023-03-26T08:53:39.016Z,12.68
2023-03-26T08:56:18.169Z,11.57
2023-03-26T08:59:09.137Z,12.43
2023-03-26T09:01:54.149Z,11.30
2023-03-26T09:04:29.790Z,15.25
2023-03-26T09:07:27.727Z,12.02
2023-03-26T09:10:32.032Z,13.13
2023-03-26T09:13:32.888Z,12.48
2023-03-26T09:16:15.253Z,12.65
2023-03-26T09:19:05.028Z,14.05
2023-03-26T09:21:57.225Z,12.48
2023-03-26T09:24:32.986Z,15.65
2023-03-26T09:27:16.319Z,14.23
2023-03-26T09:30:01.420Z,16.67
2023-03-26T09:32:57.276Z,11.43
2023-03-26T09:35:52.696Z,11.93
2023-03-26T09:38:55.092Z,13.48
2023-03-26T09:41:41.457Z,13.80
2023-03-26T09:44:37.868Z,9.75
2023-03-26T09:47:29.804Z,12.07
2023-03-26T09:50:30.460Z,14.20
2023-03-26T09:53:18.371Z,12.85
2023-03-26T09:56:08.490Z,11.50
2023-03-26T09:59:09.126Z,14.98
2023-03-26T10:01:44.974Z,12.35
2023-03-26T10:04:36.009Z,14.40
2023-03-26T10:07:30.198Z,15.60
2023-03-26T10:10:19.613Z,15.23
2023-03-26T10:12:55.969Z,9.98
2023-03-26T10:15:36.577Z,12.98
2023-03-26T10:18:27.804Z,17.20
2023-03-26T10:21:12.050Z,10.68
2023-03-26T10:24:16.616Z,10.75
2023-03-26T10:27:13.716Z,12.80
2023-03-26T10:29:59.202Z,10.48
2023-03-26T10:32:34.085Z,11.57
2023-03-26T10:35:37.084Z,14.23
2023-03-26T10:38:29.486Z,12.48
2023-03-26T10:41:38.205Z,10.57
2023-03-26T10:44:13.923Z,16.05
2023-03-26T10:47:10.901Z,12.82
2023-03-26T10:50:23.098Z,13.40
2023-03-26T10:52:56.368Z,17.55
2023-03-26T10:55:33.649Z,12.20
2023-03-26T10:58:24.157Z,12.82
2023-03-26T11:01:13.642Z,14.60
2023-03-26T11:03:52.186Z,9.02
2023-03-26T11:06:26.604Z,7.20
2023-03-26T11:09:22.706Z,12.07
2023-03-26T11:11:57.467Z,14.93
2023-03-26T11:14:34.855Z,12.55
2023-03-26T11:17:40.883Z,12.55
2023-03-26T11:20:24.248Z,12.00
2023-03-26T11:23:03.060Z,11.07
2023-03-26T11:25:38.707Z,13.57
2023-03-26T11:28:17.380Z,11.18
2023-03-26T11:31:09.940Z,13.32
2023-03-26T11:33:47.766Z,11.65
2023-03-26T11:36:29.105Z,11.90
2023-03-26T11:38:59.659Z,10.88
2023-03-26T11:41:28.627Z,7.10
2023-03-26T11:44:11.345Z,10.32
2023-03-26T11:46:42.462Z,11.32
2023-03-26T11:49:13.236Z,9.85
2023-03-26T11:51:42.958Z,13.85
2023-03-26T11:54:12.789Z,11.35
2023-03-26T11:57:05.595Z,11.90
2023-03-26T11:59:56.538Z,9.88
2023-03-26T12:02:34.060Z,8.82
2023-03-26T12:05:12.017Z,10.98
2023-03-26T12:10:37.630Z,9.38
2023-03-26T12:13:50.706Z,8.40
2023-03-26T12:16:20.067Z,11.43
2023-03-26T12:18:59.381Z,8.57
2023-03-26T12:21:27.006Z,9.43
2023-03-26T12:24:01.839Z,16.42
2023-03-26T12:26:44.958Z,10.63
2023-03-26T12:29:17.998Z,8.15
2023-03-26T12:31:56.483Z,9.63
2023-03-26T12:34:31.672Z,12.38
2023-03-26T12:37:01.788Z,9.90
2023-03-26T12:40:09.321Z,7.45
2023-03-26T12:44:46.127Z,6.07
2023-03-26T12:45:14.461Z,12.98
2023-03-26T12:47:57.980Z,7.93
2023-03-26T12:50:38.535Z,8.27
2023-03-26T12:53:08.313Z,10.43
2023-03-26T12:55:36.742Z,9.05
2023-03-26T12:58:22.253Z,8.98
2023-03-26T13:00:55.399Z,8.98
2023-03-26T13:03:38.286Z,8.45
2023-03-26T13:06:14.073Z,10.50
2023-03-26T13:09:01.131Z,14.05
2023-03-26T13:11:55.029Z,10.43
2023-03-26T13:14:44.989Z,13.05
2023-03-26T13:17:30.960Z,7.38
2023-03-26T13:20:24.935Z,9.60
2023-03-26T13:23:16.337Z,11.23
2023-03-26T13:26:01.344Z,6.13
2023-03-26T13:28:43.066Z,6.63
2023-03-26T13:31:29.131Z,12.77
2023-03-26T13:34:36.330Z,10.52
2023-03-26T13:37:18.363Z,9.27
2023-03-26T13:40:25.777Z,8.48
2023-03-26T13:43:07.724Z,8.18
2023-03-26T13:45:54.037Z,13.25
2023-03-26T13:48:28.620Z,8.00
2023-03-26T13:51:22.283Z,8.18
2023-03-26T13:54:13.643Z,8.70
2023-03-26T13:56:46.408Z,7.07
2023-03-26T13:59:21.519Z,10.52
2023-03-26T14:01:55.349Z,9.38
2023-03-26T14:04:33.524Z,9.30
2023-03-26T14:07:23.409Z,8.98
2023-03-26T14:09:59.237Z,9.50
2023-03-26T14:12:44.654Z,9.25
2023-03-26T14:15:16.359Z,10.45
2023-03-26T14:17:55.610Z,8.50
2023-03-26T14:20:44.649Z,5.45
2023-03-26T14:23:39.528Z,10.43
2023-03-26T14:26:31.474Z,8.32
2023-03-26T14:29:34.359Z,9.98
2023-03-26T14:32:32.080Z,5.90
2023-03-26T14:35:09.562Z,10.65
2023-03-26T14:38:14.402Z,7.28
2023-03-26T14:40:58.162Z,8.52
2023-03-26T14:44:11.319Z,11.68
2023-03-26T14:47:20.057Z,7.68
2023-03-26T14:50:21.601Z,4.47
2023-03-26T14:53:01.318Z,8.65
2023-03-26T14:55:48.593Z,11.45
2023-03-26T14:58:44.114Z,8.55
2023-03-26T15:01:46.945Z,9.10
2023-03-26T15:06:52.792Z,5.80
2023-03-26T15:09:25.886Z,7.28
2023-03-26T15:12:34.309Z,6.30
2023-03-26T15:15:11.081Z,6.75
2023-03-26T15:18:09.131Z,6.85
2023-03-26T15:21:06.924Z,4.70
2023-03-26T15:23:42.891Z,7.18
2023-03-26T15:26:37.133Z,5.35
2023-03-26T15:29:16.062Z,6.15
2023-03-26T15:31:57.719Z,3.47
2023-03-26T15:35:00.139Z,7.35
2023-03-26T15:37:42.083Z,3.05
2023-03-26T15:40:30.512Z,3.63
2023-03-26T15:43:32.357Z,4.85
2023-03-26T15:46:29.149Z,4.65
2023-03-26T15:51:59.166Z,3.47
2023-03-26T15:54:30.523Z,3.00
2023-03-26T15:57:26.087Z,2.00
2023-03-26T15:59:59.310Z,4.78
2023-03-26T16:03:00.595Z,4.00
2023-03-26T16:05:46.145Z,5.28
2023-03-26T16:08:53.287Z,1.98
2023-03-26T16:11:59.359Z,2.10
2023-03-26T16:14:35.152Z,1.88
2023-03-26T16:17:08.156Z,1.45
2023-03-26T16:19:49.740Z,1.70
2023-03-26T16:22:45.609Z,2.08
2023-03-26T16:25:31.490Z,3.22
2023-03-26T16:28:10.467Z,2.58
2023-03-26T16:30:38.065Z,4.38
2023-03-26T16:33:12.533Z,2.85
2023-03-26T16:36:06.506Z,2.50
2023-03-26T16:38:59.267Z,1.60
2023-03-26T16:41:31.830Z,1.52
2023-03-26T16:44:16.994Z,4.05
2023-03-26T16:46:59.167Z,4.32
2023-03-26T16:50:08.901Z,2.42
2023-03-26T16:52:46.994Z,2.53
2023-03-26T16:55:35.322Z,2.85
2023-03-26T16:58:09.524Z,2.70
2023-03-26T17:01:16.636Z,2.85
2023-03-26T17:03:54.594Z,2.58
2023-03-26T17:06:32.083Z,2.72
2023-03-26T17:09:07.817Z,0.95
2023-03-26T17:12:02.671Z,0.95
2023-03-26T17:14:29.411Z,1.90
2023-03-26T17:17:02.583Z,1.60
2023-03-26T17:19:32.750Z,1.42
2023-03-26T17:22:16.630Z,2.10
2023-03-26T17:24:57.140Z,0.70
2023-03-26T17:27:50.096Z,1.50
2023-03-26T17:30:45.787Z,2.22
2023-03-26T17:33:20.037Z,2.78
2023-03-26T17:35:48.807Z,1.77
2023-03-26T17:38:15.593Z,1.48
2023-03-26T17:40:58.674Z,2.30
2023-03-26T17:43:46.563Z,1.65
2023-03-26T17:46:13.688Z,1.00
2023-03-26T17:48:47.097Z,2.80
2023-03-26T17:51:32.041Z,2.50
2023-03-26T17:54:00.176Z,3.17
2023-03-26T17:56:29.779Z,1.05
2023-03-26T17:59:11.521Z,2.38
2023-03-26T18:01:44.300Z,0.75
2023-03-26T18:04:21.209Z,1.63
2023-03-26T18:07:04.083Z,2.28
2023-03-26T18:10:09.411Z,2.47
2023-03-26T18:12:48.391Z,1.30
2023-03-26T18:15:20.201Z,2.53
2023-03-26T18:17:48.028Z,1.30
2023-03-26T18:20:24.373Z,4.45
2023-03-26T18:22:52.566Z,4.60
2023-03-26T18:25:34.081Z,1.77
2023-03-26T18:28:02.361Z,1.83
2023-03-26T18:30:29.845Z,0.95
2023-03-26T18:33:04.018Z,2.70
2023-03-26T18:35:46.186Z,1.33
2023-03-26T18:38:19.305Z,2.08
2023-03-26T18:41:05.909Z,3.28
2023-03-26T18:43:35.622Z,2.15
2023-03-26T18:46:13.824Z,2.83
2023-03-26T18:48:41.528Z,3.40
2023-03-26T18:51:10.219Z,1.92
2023-03-26T18:54:04.712Z,3.03
2023-03-26T18:56:40.576Z,1.60
2023-03-26T18:59:30.783Z,2.38
2023-03-26T19:02:05.469Z,2.72
2023-03-26T19:04:34.852Z,2.30
2023-03-26T19:07:04.665Z,3.08
2023-03-26T19:09:32.707Z,2.30
2023-03-26T19:12:14.388Z,2.00
2023-03-26T19:15:11.121Z,2.85
2023-03-26T19:17:56.674Z,4.28
2023-03-26T19:20:28.916Z,3.00
2023-03-26T19:22:56.990Z,3.40
2023-03-26T19:25:28.721Z,3.17
2023-03-26T19:27:56.054Z,2.90
2023-03-26T19:30:31.741Z,4.45
2023-03-26T19:33:13.894Z,5.63
2023-03-26T19:35:42.840Z,4.10
2023-03-26T19:38:24.841Z,6.85
2023-03-26T19:40:54.833Z,9.32
2023-03-26T19:43:23.082Z,5.78
2023-03-26T19:45:59.893Z,4.55
2023-03-26T19:48:45.774Z,3.95
2023-03-26T19:51:21.093Z,2.58
2023-03-26T19:53:54.289Z,4.85
2023-03-26T19:56:22.156Z,2.47
2023-03-26T19:58:50.157Z,2.78
2023-03-26T20:01:26.736Z,2.83
2023-03-26T20:04:01.021Z,3.78
2023-03-26T20:06:42.278Z,3.88
2023-03-26T20:09:12.877Z,5.18
2023-03-26T20:11:40.753Z,2.53
2023-03-26T20:14:24.521Z,2.38
2023-03-26T20:16:52.115Z,2.35
2023-03-26T20:19:19.209Z,2.03
2023-03-26T20:21:46.136Z,1.80
2023-03-26T20:24:17.750Z,1.50
2023-03-26T20:26:45.810Z,0.57
2023-03-26T20:29:14.018Z,1.50
2023-03-26T20:31:41.711Z,2.03
2023-03-26T20:34:22.105Z,1.08
2023-03-26T20:36:55.127Z,2.95
2023-03-26T20:39:23.467Z,2.03
2023-03-26T20:41:53.713Z,2.00
2023-03-26T20:44:21.929Z,2.65
2023-03-26T20:46:49.936Z,1.40
2023-03-26T20:49:18.464Z,3.00
2023-03-26T20:51:46.610Z,3.20
2023-03-26T20:54:17.638Z,3.97
2023-03-26T20:56:45.686Z,2.72
2023-03-26T20:59:18.071Z,3.17
2023-03-26T21:01:47.509Z,4.53
2023-03-26T21:04:16.090Z,2.42
2023-03-26T21:06:43.950Z,3.28
2023-03-26T21:09:17.627Z,4.95
2023-03-26T21:12:08.107Z,3.00
2023-03-26T21:14:44.218Z,2.17
2023-03-26T21:17:22.173Z,2.65
2023-03-26T21:19:49.696Z,2.30
2023-03-26T21:22:43.325Z,1.70
2023-03-26T21:25:32.302Z,2.60
2023-03-26T21:28:28.943Z,1.55
2023-03-26T21:33:31.108Z,1.48
2023-03-26T21:36:00.013Z,2.33
2023-03-26T21:38:27.561Z,1.88
2023-03-26T21:40:58.851Z,3.10
2023-03-26T21:43:26.097Z,1.70
2023-03-26T21:45:57.457Z,1.85
2023-03-26T21:48:24.669Z,2.50
2023-03-26T21:50:51.931Z,1.55
2023-03-26T21:53:19.061Z,2.03
2023-03-26T21:56:21.448Z,2.53
2023-03-26T21:58:59.188Z,2.67
2023-03-26T22:01:48.897Z,2.65
2023-03-26T22:04:36.154Z,1.60
2023-03-26T22:07:17.756Z,2.15
2023-03-26T22:09:44.955Z,1.13
2023-03-26T22:12:12.117Z,1.83
2023-03-26T22:14:39.342Z,2.95
2023-03-26T22:17:06.795Z,2.03
2023-03-26T22:19:34.594Z,2.88
2023-03-26T22:22:02.154Z,1.50
2023-03-26T22:24:28.980Z,2.40
2023-03-26T22:26:56.055Z,2.08
2023-03-26T22:29:22.895Z,3.83
2023-03-26T22:31:49.606Z,2.00
2023-03-26T22:34:16.665Z,2.72
2023-03-26T22:36:43.466Z,3.70
2023-03-26T22:39:10.185Z,0.68
2023-03-26T22:41:37.143Z,1.38
2023-03-26T22:44:16.841Z,1.33
2023-03-26T22:46:49.236Z,2.85
2023-03-26T22:49:16.745Z,3.20
2023-03-26T22:51:43.765Z,1.17
2023-03-26T22:54:10.637Z,2.45
2023-03-26T22:56:37.681Z,2.22
2023-03-26T22:59:04.675Z,3.78
2023-03-26T23:01:31.562Z,1.05
2023-03-26T23:03:58.639Z,1.80
2023-03-26T23:06:25.615Z,3.65
2023-03-26T23:08:52.461Z,1.52
2023-03-26T23:11:22.009Z,3.47
2023-03-26T23:13:49.320Z,3.13
2023-03-26T23:16:17.371Z,2.28
2023-03-26T23:18:44.605Z,1.83
2023-03-26T23:21:18.461Z,2.25
2023-03-26T23:23:46.206Z,1.75
2023-03-26T23:26:14.426Z,1.90
2023-03-26T23:28:42.340Z,1.67
2023-03-26T23:31:12.090Z,1.90
2023-03-26T23:33:46.606Z,1.95
2023-03-26T23:36:18.702Z,4.47
2023-03-26T23:38:47.610Z,1.95
2023-03-26T23:41:16.127Z,3.20
2023-03-26T23:43:53.385Z,1.23
2023-03-26T23:46:24.016Z,1.65
2023-03-26T23:48:52.525Z,1.35
2023-03-26T23:51:20.437Z,1.75
2023-03-26T23:53:49.185Z,3.08
2023-03-26T23:56:16.622Z,2.72
2023-03-26T23:58:43.449Z,2.25
